Time;durP1;ratioP1;P1;durP2;ratioP2;P2;SDS_P1;SDS_P2;PMS_P1;PMS_P2;Temp;Humidity;BMP_temperature;BMP_pressure;BME280_temperature;BME280_humidity;BME280_pressure;Samples;Min_cycle;Max_cycle;Signal;HPM_P1;HPM_P2
2023/10/02 04:22:35;;;;;;;11.18;5.28;;;;;;;10.49;100.00;100873.16;5109136;27;20388;-65
2023/10/02 04:25:06;;;;;;;;;;;;;;;10.52;100.00;100866.72;5109727;28;20571;-66
2023/10/02 04:32:42;;;;;;;10.73;5.82;;;;;;;10.47;100.00;100869.84;5109745;28;20409;-67
2023/10/02 04:35:44;;;;;;;10.85;5.78;;;;;;;10.50;100.00;100869.53;5095843;28;20020;-66
2023/10/02 04:37:59;;;;;;;12.38;6.20;;;;;;;10.52;100.00;100867.53;5089267;28;20565;-67
2023/10/02 04:40:37;;;;;;;10.13;5.32;;;;;;;10.48;100.00;100868.00;5089009;28;20487;-66
2023/10/02 04:43:19;;;;;;;11.15;6.28;;;;;;;10.51;100.00;100871.19;5088886;28;20044;-66
2023/10/02 04:45:52;;;;;;;9.90;5.20;;;;;;;10.50;100.00;100874.03;5089123;28;20052;-66
2023/10/02 04:48:25;;;;;;;10.05;5.22;;;;;;;10.50;100.00;100871.38;5089091;28;20406;-66
2023/10/02 04:50:56;;;;;;;8.82;4.65;;;;;;;10.53;100.00;100874.53;5088944;28;20048;-66
2023/10/02 04:53:22;;;;;;;9.20;5.70;;;;;;;10.54;100.00;100875.38;5088771;28;20107;-66
2023/10/02 04:55:49;;;;;;;8.95;5.32;;;;;;;10.52;100.00;100878.19;5088778;28;20028;-67
2023/10/02 04:58:19;;;;;;;8.85;5.07;;;;;;;10.49;100.00;100878.50;5088837;28;20514;-66
2023/10/02 05:03:32;;;;;;;9.68;5.45;;;;;;;10.43;100.00;100876.50;5088446;28;20040;-67
2023/10/02 05:05:59;;;;;;;8.65;5.07;;;;;;;10.44;100.00;100879.97;5088676;28;20131;-67
2023/10/02 05:09:19;;;;;;;8.68;4.93;;;;;;;10.38;100.00;100880.59;5088739;28;20036;-66
2023/10/02 05:11:46;;;;;;;10.88;5.30;;;;;;;10.38;100.00;100876.13;5088447;28;20064;-66
2023/10/02 05:14:13;;;;;;;9.57;5.05;;;;;;;10.40;100.00;100878.63;5088351;28;20445;-65
2023/10/02 05:16:40;;;;;;;;;;;;;;;10.37;100.00;100876.25;5088923;28;20075;-64
2023/10/02 05:19:08;;;;;;;8.10;4.68;;;;;;;10.41;100.00;100875.78;5088743;28;20351;-66
2023/10/02 05:21:39;;;;;;;8.70;5.38;;;;;;;10.42;100.00;100877.44;5088245;28;20483;-66
2023/10/02 05:24:06;;;;;;;9.48;4.85;;;;;;;10.43;100.00;100880.94;5088073;28;20048;-66
2023/10/02 05:26:34;;;;;;;9.43;5.32;;;;;;;10.42;100.00;100876.63;5088346;28;20046;-65
2023/10/02 05:29:01;;;;;;;11.05;5.22;;;;;;;10.42;100.00;100877.44;5088038;28;20028;-65
2023/10/02 05:31:27;;;;;;;11.10;5.37;;;;;;;10.37;100.00;100879.78;5088147;28;20032;-66
2023/10/02 05:33:54;;;;;;;8.57;5.20;;;;;;;10.40;100.00;100874.13;5074521;28;20291;-67
2023/10/02 05:36:21;;;;;;;9.07;4.97;;;;;;;10.36;100.00;100880.75;5074577;28;20499;-66
2023/10/02 05:39:24;;;;;;;11.45;5.72;;;;;;;10.30;100.00;100878.69;5074570;28;20040;-67
2023/10/02 05:41:44;;;;;;;10.00;4.78;;;;;;;10.33;100.00;100886.41;5074373;28;20036;-66
2023/10/02 05:44:13;;;;;;;;;;;;;;;10.26;100.00;100888.00;5074716;28;20050;-66
2023/10/02 05:46:55;;;;;;;11.73;6.13;;;;;;;10.31;100.00;100891.06;5074365;28;20267;-66
2023/10/02 05:49:23;;;;;;;13.38;7.55;;;;;;;10.31;100.00;100894.53;5074452;28;20040;-67
2023/10/02 05:51:55;;;;;;;10.40;5.78;;;;;;;10.30;100.00;100890.22;5074348;28;20033;-66
2023/10/02 05:54:26;;;;;;;10.48;6.38;;;;;;;10.34;100.00;100893.38;5074104;28;20045;-66
2023/10/02 05:56:54;;;;;;;10.68;5.18;;;;;;;10.33;100.00;100894.38;5074167;28;20043;-66
2023/10/02 05:59:24;;;;;;;8.90;4.80;;;;;;;10.32;100.00;100900.72;5074219;28;20032;-64
2023/10/02 06:01:52;;;;;;;9.80;5.22;;;;;;;10.36;100.00;100898.53;5074049;28;20116;-66
2023/10/02 06:04:23;;;;;;;9.07;4.57;;;;;;;10.36;100.00;100899.38;5073903;28;20036;-66
2023/10/02 06:06:51;;;;;;;8.93;4.80;;;;;;;10.40;100.00;100894.59;5074016;28;20048;-66
2023/10/02 06:09:16;;;;;;;8.95;5.18;;;;;;;10.44;100.00;100896.78;5074063;28;20078;-67
2023/10/02 06:12:02;;;;;;;11.65;5.72;;;;;;;10.48;100.00;100902.63;5073998;28;20068;-65
2023/10/02 06:14:27;;;;;;;10.50;6.20;;;;;;;10.55;100.00;100901.84;5073788;28;20036;-67
2023/10/02 06:16:53;;;;;;;7.45;4.55;;;;;;;10.56;100.00;100892.88;5073784;28;20112;-66
2023/10/02 06:19:19;;;;;;;11.68;6.38;;;;;;;10.65;100.00;100903.59;5073861;28;20028;-66
2023/10/02 06:21:47;;;;;;;9.02;5.32;;;;;;;10.70;100.00;100907.44;5073578;28;20040;-66
2023/10/02 06:24:17;;;;;;;8.93;5.20;;;;;;;10.81;100.00;100898.31;5073498;28;20098;-66
2023/10/02 06:26:49;;;;;;;9.13;5.35;;;;;;;10.91;100.00;100907.03;5073533;28;20082;-62
2023/10/02 06:29:22;;;;;;;9.27;5.82;;;;;;;11.02;100.00;100909.44;5073597;28;20068;-62
2023/10/02 06:31:58;;;;;;;10.55;6.32;;;;;;;11.09;100.00;100913.13;5073482;28;20187;-62
2023/10/02 06:34:36;;;;;;;13.95;5.88;;;;;;;11.13;100.00;100911.78;5073306;28;20094;-63
2023/10/02 06:37:07;;;;;;;9.05;5.07;;;;;;;11.24;100.00;100910.69;5073438;28;20090;-62
2023/10/02 06:39:35;;;;;;;11.10;5.63;;;;;;;11.31;100.00;100916.22;5073452;28;20064;-63
2023/10/02 06:42:04;;;;;;;11.55;6.25;;;;;;;11.39;100.00;100914.38;5073352;28;20033;-63
2023/10/02 06:44:59;;;;;;;10.38;5.40;;;;;;;11.47;100.00;100908.25;5072097;28;20039;-62
2023/10/02 06:47:22;;;;;;;15.20;6.03;;;;;;;11.54;100.00;100911.94;5072738;28;20057;-64
2023/10/02 06:49:52;;;;;;;10.95;6.32;;;;;;;11.60;100.00;100919.28;5073314;28;20036;-63
2023/10/02 06:52:19;;;;;;;10.75;5.95;;;;;;;11.66;100.00;100920.47;5073126;28;20041;-64
2023/10/02 06:54:48;;;;;;;11.73;5.38;;;;;;;11.75;100.00;100918.66;5064709;28;20537;-64
2023/10/02 06:57:16;;;;;;;9.90;5.18;;;;;;;11.85;100.00;100919.34;5063580;28;20515;-63
2023/10/02 06:59:51;;;;;;;11.07;5.88;;;;;;;11.94;100.00;100921.88;5061970;28;20129;-64
2023/10/02 07:02:23;;;;;;;9.90;5.85;;;;;;;12.03;100.00;100924.53;5061817;28;20040;-64
2023/10/02 07:04:50;;;;;;;9.38;5.53;;;;;;;12.12;100.00;100921.69;5061384;28;20032;-63
2023/10/02 07:07:20;;;;;;;11.02;6.22;;;;;;;12.20;100.00;100916.38;5061629;28;20029;-63
2023/10/02 07:09:48;;;;;;;11.40;6.28;;;;;;;12.29;100.00;100916.38;5062003;28;20041;-64
2023/10/02 07:12:13;;;;;;;14.15;5.65;;;;;;;12.39;100.00;100920.53;5062081;28;20028;-63
2023/10/02 07:14:43;;;;;;;12.15;6.28;;;;;;;12.50;100.00;100922.84;5060509;28;20034;-63
2023/10/02 07:17:16;;;;;;;13.27;6.85;;;;;;;12.64;100.00;100921.31;5060058;28;20119;-63
2023/10/02 07:19:49;;;;;;;11.95;6.70;;;;;;;12.76;100.00;100932.47;5066900;28;20036;-64
2023/10/02 07:22:16;;;;;;;14.65;6.88;;;;;;;12.81;100.00;100921.28;5068784;28;20037;-63
2023/10/02 07:24:46;;;;;;;11.40;6.07;;;;;;;12.89;100.00;100918.59;5057619;28;20111;-64
2023/10/02 07:27:24;;;;;;;14.68;6.80;;;;;;;12.98;100.00;100918.41;5055000;28;20097;-63
2023/10/02 07:29:51;;;;;;;13.57;6.13;;;;;;;13.09;100.00;100917.16;5057242;28;20449;-64
2023/10/02 07:32:29;;;;;;;13.60;7.32;;;;;;;13.22;100.00;100913.97;5062471;28;20039;-64
2023/10/02 07:34:55;;;;;;;11.68;5.85;;;;;;;13.40;100.00;100916.41;5072092;28;20047;-64
2023/10/02 07:37:22;;;;;;;22.17;13.65;;;;;;;13.48;100.00;100919.03;5072115;28;20040;-64
2023/10/02 07:39:49;;;;;;;13.90;7.10;;;;;;;13.61;100.00;100905.91;5072403;28;20028;-63
2023/10/02 07:42:16;;;;;;;12.63;7.38;;;;;;;13.72;100.00;100921.56;5072243;28;20040;-64
2023/10/02 07:44:42;;;;;;;13.48;7.70;;;;;;;13.84;100.00;100912.13;5071836;28;20040;-64
2023/10/02 07:47:16;;;;;;;12.65;6.65;;;;;;;13.98;100.00;100917.72;5071876;28;20042;-63
2023/10/02 07:49:51;;;;;;;14.57;7.00;;;;;;;14.20;100.00;100924.06;5072092;28;20130;-63
2023/10/02 07:52:40;;;;;;;15.88;6.82;;;;;;;14.30;100.00;100920.13;5072060;28;20045;-64
2023/10/02 07:55:10;;;;;;;17.63;7.47;;;;;;;14.49;100.00;100917.97;5071689;28;20085;-64
2023/10/02 07:57:35;;;;;;;12.85;6.00;;;;;;;14.60;100.00;100917.50;5072100;28;20044;-64
2023/10/02 08:00:33;;;;;;;13.20;6.10;;;;;;;14.73;100.00;100909.66;5072023;28;20123;-64
2023/10/02 08:02:51;;;;;;;12.68;6.13;;;;;;;14.81;100.00;100906.91;5071757;28;20059;-64
2023/10/02 08:05:19;;;;;;;13.30;6.97;;;;;;;15.05;100.00;100915.66;5072021;28;20048;-64
2023/10/02 08:07:45;;;;;;;;;;;;;;;15.24;100.00;100916.94;5072423;28;20032;-64
2023/10/02 08:10:10;;;;;;;13.25;6.22;;;;;;;15.35;100.00;100920.00;5071999;28;20373;-64
2023/10/02 08:12:50;;;;;;;15.20;7.63;;;;;;;15.47;100.00;100917.66;5071931;28;20032;-64
2023/10/02 08:15:32;;;;;;;13.27;5.68;;;;;;;15.61;100.00;100903.34;5071847;28;20486;-63
2023/10/02 08:20:36;;;;;;;12.68;6.68;;;;;;;15.94;100.00;100906.41;5071764;28;20519;-63
2023/10/02 08:23:21;;;;;;;13.23;7.18;;;;;;;16.17;100.00;100910.72;5071910;28;20040;-63
2023/10/02 08:26:00;;;;;;;14.48;6.57;;;;;;;16.22;100.00;100910.97;5071720;28;20576;-63
2023/10/02 08:28:30;;;;;;;14.00;6.53;;;;;;;16.32;100.00;100902.59;5071776;28;20043;-63
2023/10/02 08:31:02;;;;;;;15.57;6.53;;;;;;;16.41;100.00;100904.94;5071694;28;20364;-63
2023/10/02 08:33:33;;;;;;;12.02;6.22;;;;;;;16.60;100.00;100906.09;5071447;28;20123;-63
2023/10/02 08:36:01;;;;;;;10.55;5.88;;;;;;;16.69;100.00;100904.94;5071719;28;20092;-64
2023/10/02 08:38:27;;;;;;;12.82;6.65;;;;;;;16.88;100.00;100906.09;5071612;28;20078;-64
2023/10/02 08:41:03;;;;;;;10.65;6.00;;;;;;;17.09;100.00;100913.28;5071602;28;20058;-64
2023/10/02 08:43:32;;;;;;;12.00;6.15;;;;;;;17.15;100.00;100903.53;5071386;28;20491;-64
2023/10/02 08:45:58;;;;;;;9.68;6.00;;;;;;;17.34;100.00;100906.34;5071641;28;20035;-64
2023/10/02 08:48:25;;;;;;;9.95;5.57;;;;;;;17.57;100.00;100911.38;5071504;28;20036;-64
2023/10/02 08:50:57;;;;;;;9.30;6.03;;;;;;;17.66;100.00;100906.63;5071730;28;20079;-63
2023/10/02 08:53:23;;;;;;;12.48;6.18;;;;;;;17.68;100.00;100901.03;5071302;28;20047;-64
2023/10/02 08:56:21;;;;;;;11.73;6.03;;;;;;;17.90;99.61;100908.78;5071308;28;20029;-63
2023/10/02 08:58:47;;;;;;;10.50;5.43;;;;;;;18.02;99.19;100903.63;5071406;28;20036;-62
2023/10/02 09:01:20;;;;;;;11.50;5.65;;;;;;;18.12;99.24;100906.72;5071620;28;20033;-62
2023/10/02 09:04:21;;;;;;;13.23;6.78;;;;;;;18.29;96.00;100909.00;5071289;28;20041;-63
2023/10/02 09:06:53;;;;;;;11.35;5.97;;;;;;;18.50;96.00;100911.47;5071325;28;20113;-63
2023/10/02 09:11:57;;;;;;;11.40;5.70;;;;;;;18.61;95.63;100896.53;5073802;28;20040;-63
2023/10/02 09:20:00;;;;;;;10.68;5.95;;;;;;;19.00;93.24;100897.50;5074985;28;20059;-63
2023/10/02 09:22:27;;;;;;;10.35;5.18;;;;;;;19.15;94.06;100896.19;5074664;28;20548;-63
2023/10/02 09:25:26;;;;;;;;;;;;;;;19.19;92.26;100900.13;5075150;28;20018;-63
2023/10/02 09:28:03;;;;;;;7.80;5.03;;;;;;;19.33;91.55;100900.91;5074804;28;19916;-64
2023/10/02 09:33:22;;;;;;;9.30;5.38;;;;;;;19.56;88.62;100894.97;5074492;28;20063;-63
2023/10/02 09:35:51;;;;;;;10.65;5.60;;;;;;;19.81;86.44;100894.22;5074640;28;20043;-63
2023/10/02 09:38:17;;;;;;;10.35;5.85;;;;;;;20.30;84.84;100890.72;5074576;28;20064;-63
2023/10/02 09:41:15;;;;;;;10.65;5.82;;;;;;;20.49;80.99;100875.41;5074499;28;20029;-63
2023/10/02 09:43:41;;;;;;;11.65;5.97;;;;;;;21.21;81.40;100879.16;5074272;28;20029;-63
2023/10/02 09:46:17;;;;;;;9.70;5.55;;;;;;;21.82;71.82;100874.56;5074437;28;20044;-63
2023/10/02 09:48:56;;;;;;;11.10;5.88;;;;;;;21.95;71.85;100867.06;5074311;28;20055;-63
2023/10/02 09:51:27;;;;;;;10.32;5.05;;;;;;;22.79;71.27;100869.56;5074338;28;20491;-63
2023/10/02 09:54:13;;;;;;;9.23;5.38;;;;;;;23.15;63.97;100871.19;5074244;28;20104;-63
2023/10/02 09:57:06;;;;;;;11.27;6.20;;;;;;;23.91;60.96;100855.47;5074305;28;20052;-63
2023/10/02 09:59:48;;;;;;;10.55;6.10;;;;;;;24.25;57.63;100856.25;5074183;28;20036;-64
2023/10/02 10:05:00;;;;;;;11.35;6.18;;;;;;;25.05;53.39;100848.72;5073980;28;20449;-63
2023/10/02 10:10:27;;;;;;;12.30;5.95;;;;;;;26.23;51.46;100851.47;5073838;28;20047;-64
2023/10/02 10:12:58;;;;;;;11.85;6.35;;;;;;;26.71;48.87;100846.88;5073735;28;20551;-63
2023/10/02 10:15:25;;;;;;;10.70;6.35;;;;;;;27.06;48.92;100838.03;5073971;28;20047;-64
2023/10/02 10:17:51;;;;;;;11.55;6.63;;;;;;;27.32;47.88;100833.44;5066196;28;20526;-64
2023/10/02 10:20:20;;;;;;;10.70;6.40;;;;;;;27.64;46.01;100835.94;5063870;28;20049;-64
2023/10/02 10:22:56;;;;;;;10.40;6.05;;;;;;;28.10;45.14;100831.34;5062417;28;20112;-64
2023/10/02 10:27:54;;;;;;;12.60;6.85;;;;;;;28.83;43.73;100828.16;5064262;28;20040;-64
2023/10/02 10:35:52;;;;;;;10.52;6.45;;;;;;;28.77;43.91;100822.97;5063363;28;20040;-63
2023/10/02 10:38:29;;;;;;;9.93;5.75;;;;;;;29.18;42.51;100816.19;5061373;28;20124;-63
2023/10/02 10:41:27;;;;;;;12.63;6.63;;;;;;;29.71;41.23;100818.31;5053239;28;20036;-63
2023/10/02 10:43:55;;;;;;;13.32;7.13;;;;;;;29.66;42.35;100818.38;5053296;28;20044;-63
2023/10/02 10:46:29;;;;;;;10.02;6.57;;;;;;;30.32;39.71;100805.97;5053264;28;20111;-64
2023/10/02 10:49:07;;;;;;;10.93;6.50;;;;;;;30.92;38.63;100811.88;5053235;28;20048;-63
2023/10/02 10:51:39;;;;;;;11.95;6.53;;;;;;;30.69;39.24;100802.53;5053234;28;20041;-62
2023/10/02 10:54:41;;;;;;;10.70;6.45;;;;;;;31.27;38.29;100802.31;5052931;28;20064;-62
2023/10/02 10:57:18;;;;;;;9.35;6.25;;;;;;;31.43;37.82;100801.00;5051834;28;20053;-63
2023/10/02 10:59:45;;;;;;;;;;;;;;;31.98;36.62;100798.44;5054892;28;20037;-62
2023/10/02 11:02:13;;;;;;;;;;;;;;;31.58;37.64;100795.22;5073405;28;19912;-63
2023/10/02 11:05:03;;;;;;;10.63;6.28;;;;;;;32.07;36.79;100782.00;5072667;28;19912;-64
2023/10/02 11:07:37;;;;;;;12.48;6.90;;;;;;;31.61;38.25;100791.88;5072875;28;20059;-63
2023/10/02 11:10:15;;;;;;;10.88;6.57;;;;;;;32.82;35.15;100780.81;5072782;28;20056;-63
2023/10/02 11:12:56;;;;;;;11.25;7.03;;;;;;;32.54;35.11;100785.50;5072775;28;20051;-64
2023/10/02 11:18:20;;;;;;;14.43;7.35;;;;;;;31.99;36.19;100780.78;5069561;28;20064;-64
2023/10/02 11:20:49;;;;;;;11.25;6.97;;;;;;;32.57;35.59;100777.47;5061652;28;20025;-63
2023/10/02 11:23:45;;;;;;;10.65;6.60;;;;;;;32.52;35.94;100776.75;5061161;28;20032;-63
2023/10/02 11:26:12;;;;;;;13.10;7.82;;;;;;;31.83;35.80;100783.00;5060439;28;20143;-63
2023/10/02 11:28:38;;;;;;;;;;;;;;;31.15;37.27;100771.66;5063252;28;20051;-63
2023/10/02 11:31:12;;;;;;;12.18;7.68;;;;;;;32.29;35.11;100762.84;5060525;28;19932;-63
2023/10/02 11:33:40;;;;;;;12.80;7.78;;;;;;;32.58;34.54;100759.78;5060925;28;20111;-64
2023/10/02 11:36:11;;;;;;;11.98;7.32;;;;;;;32.39;35.12;100757.16;5060969;28;20037;-64
2023/10/02 11:38:38;;;;;;;13.50;7.30;;;;;;;31.80;35.69;100763.50;5061240;28;20041;-63
2023/10/02 11:41:04;;;;;;;13.82;7.90;;;;;;;32.20;34.74;100750.06;5062869;28;20037;-64
2023/10/02 11:43:29;;;;;;;11.87;7.63;;;;;;;32.15;34.59;100751.00;5064406;28;20032;-63
2023/10/02 11:45:55;;;;;;;13.10;8.67;;;;;;;31.74;35.87;100737.13;5069026;28;20040;-63
2023/10/02 11:48:20;;;;;;;12.87;7.03;;;;;;;32.86;34.40;100732.16;5072222;28;20055;-64
2023/10/02 11:50:46;;;;;;;11.53;7.30;;;;;;;32.60;35.02;100738.25;5072044;28;20037;-63
2023/10/02 11:53:12;;;;;;;13.38;7.25;;;;;;;33.39;33.89;100729.56;5068618;28;20024;-63
2023/10/02 11:55:37;;;;;;;12.50;7.40;;;;;;;33.30;34.49;100728.66;5072003;28;20106;-63
2023/10/02 11:58:04;;;;;;;12.97;7.43;;;;;;;33.40;33.45;100724.88;5072152;28;20098;-63
2023/10/02 12:00:29;;;;;;;13.65;8.15;;;;;;;33.88;32.71;100718.63;5072052;28;20071;-63
2023/10/02 12:02:56;;;;;;;14.50;8.03;;;;;;;34.11;32.12;100709.16;5071927;28;20068;-63
2023/10/02 12:05:22;;;;;;;14.40;7.70;;;;;;;33.63;33.03;100720.13;5072045;28;20048;-63
2023/10/02 12:07:48;;;;;;;12.68;7.93;;;;;;;33.34;33.00;100707.59;5072088;28;20036;-63
2023/10/02 12:10:16;;;;;;;14.30;8.47;;;;;;;33.48;32.68;100705.59;5071986;28;20025;-64
2023/10/02 12:12:45;;;;;;;13.90;8.73;;;;;;;33.53;32.61;100698.31;5071859;28;20058;-63
2023/10/02 12:15:16;;;;;;;15.30;8.20;;;;;;;33.99;31.94;100695.97;5072365;28;20040;-63
2023/10/02 12:17:43;;;;;;;14.93;8.93;;;;;;;34.27;32.14;100693.75;5072426;28;20047;-63
2023/10/02 12:20:16;;;;;;;16.55;8.88;;;;;;;34.54;31.38;100697.41;5071110;28;20032;-64
2023/10/02 12:22:46;;;;;;;16.10;8.15;;;;;;;35.31;30.34;100693.84;5072001;28;20085;-63
2023/10/02 12:25:12;;;;;;;13.65;8.15;;;;;;;35.55;29.74;100687.00;5071775;28;20469;-63
2023/10/02 12:27:41;;;;;;;13.35;8.15;;;;;;;35.41;29.82;100680.78;5054177;28;20036;-63
2023/10/02 12:30:11;;;;;;;14.48;8.85;;;;;;;35.40;28.77;100673.63;5070813;28;20033;-63
2023/10/02 12:32:38;;;;;;;15.00;8.25;;;;;;;35.33;28.59;100674.94;5071986;28;20115;-63
2023/10/02 12:35:05;;;;;;;11.80;7.47;;;;;;;35.61;28.72;100664.31;5072045;28;20021;-63
2023/10/02 12:37:32;;;;;;;16.75;9.85;;;;;;;35.55;29.57;100664.84;5054196;28;20043;-63
2023/10/02 12:39:58;;;;;;;12.77;8.15;;;;;;;34.95;29.74;100654.66;5065157;28;20033;-63
2023/10/02 12:42:44;;;;;;;16.15;9.07;;;;;;;35.21;29.64;100658.22;5035189;28;20041;-63
2023/10/02 12:45:10;;;;;;;15.88;8.82;;;;;;;35.24;28.56;100654.78;5054373;28;20086;-63
2023/10/02 12:47:52;;;;;;;14.23;7.93;;;;;;;34.88;29.79;100651.53;5056088;28;20036;-63
2023/10/02 12:50:19;;;;;;;15.70;8.98;;;;;;;34.97;29.45;100649.63;5055715;28;20033;-63
2023/10/02 12:52:44;;;;;;;14.02;8.38;;;;;;;35.76;28.09;100637.19;5055514;28;20045;-64
2023/10/02 12:55:10;;;;;;;14.80;8.70;;;;;;;35.50;27.75;100629.81;5055399;28;20498;-64
2023/10/02 12:57:46;;;;;;;15.48;8.60;;;;;;;35.52;27.94;100637.78;5038183;28;20040;-64
2023/10/02 13:00:18;;;;;;;13.35;8.57;;;;;;;35.41;28.80;100625.41;5038061;28;20047;-64
2023/10/02 13:02:44;;;;;;;16.27;9.40;;;;;;;35.18;27.97;100638.66;5054251;28;20044;-64
2023/10/02 13:05:10;;;;;;;16.17;9.20;;;;;;;35.42;27.57;100616.81;5054648;28;20048;-64
2023/10/02 13:07:44;;;;;;;15.80;9.23;;;;;;;35.55;27.20;100620.53;5054705;28;20365;-64
2023/10/02 13:10:10;;;;;;;16.55;9.90;;;;;;;35.73;27.88;100610.97;5055627;28;20041;-63
2023/10/02 13:12:36;;;;;;;16.07;9.43;;;;;;;35.28;27.67;100617.00;5055147;28;20025;-64
2023/10/02 13:15:01;;;;;;;16.20;10.63;;;;;;;35.43;27.77;100607.38;5054966;28;20502;-63
2023/10/02 13:17:28;;;;;;;18.23;11.20;;;;;;;35.29;27.23;100615.84;5055019;28;20287;-65
2023/10/02 13:19:55;;;;;;;17.95;10.57;;;;;;;35.43;28.00;100609.31;5055093;28;20049;-64
2023/10/02 13:22:20;;;;;;;;;;;;;;;34.98;27.77;100605.00;5055164;28;20037;-63
2023/10/02 13:24:46;;;;;;;;;;;;;;;34.94;27.55;100611.53;5054993;28;19962;-64
2023/10/02 13:27:12;;;;;;;18.13;10.40;;;;;;;35.39;27.35;100600.00;5054780;28;19916;-64
2023/10/02 13:29:37;;;;;;;;;;;;;;;34.31;29.29;100597.19;5057859;28;20060;-63
2023/10/02 13:32:05;;;;;;;;;;;;;;;34.38;29.34;100588.41;5065909;28;19978;-63
2023/10/02 13:34:31;;;;;;;17.77;10.10;;;;;;;33.85;29.46;100584.72;5065423;28;20323;-63
2023/10/02 13:36:57;;;;;;;16.60;10.43;;;;;;;33.25;29.40;100589.97;5062321;28;20503;-62
2023/10/02 13:39:23;;;;;;;19.60;11.43;;;;;;;32.56;29.70;100585.59;5062669;28;20044;-63
2023/10/02 13:41:48;;;;;;;19.37;11.53;;;;;;;32.31;31.11;100584.22;5063486;28;20045;-63
2023/10/02 13:44:14;;;;;;;19.97;11.30;;;;;;;32.52;29.57;100581.00;5064319;28;20064;-63
2023/10/02 13:46:40;;;;;;;18.23;10.43;;;;;;;31.86;30.55;100575.00;5048636;28;20132;-63
2023/10/02 13:49:06;;;;;;;18.53;11.33;;;;;;;31.74;31.13;100574.69;5063094;28;20120;-63
2023/10/02 13:51:32;;;;;;;19.30;11.40;;;;;;;31.38;32.74;100566.34;5064631;28;20029;-62
2023/10/02 13:53:57;;;;;;;18.83;10.73;;;;;;;30.96;34.21;100568.16;5063515;28;20024;-63
2023/10/02 13:56:32;;;;;;;18.77;10.47;;;;;;;30.67;33.07;100563.69;5062905;28;20388;-63
2023/10/02 13:58:59;;;;;;;16.77;9.40;;;;;;;30.46;33.27;100568.66;5063758;28;20047;-63
2023/10/02 14:01:25;;;;;;;18.60;10.27;;;;;;;30.30;34.58;100569.16;5064958;28;20071;-63
2023/10/02 14:03:55;;;;;;;17.60;10.00;;;;;;;30.36;34.14;100568.00;5062835;28;20035;-63
2023/10/02 14:06:25;;;;;;;19.75;10.05;;;;;;;30.17;34.10;100560.56;5062974;28;20411;-63
2023/10/02 14:08:52;;;;;;;18.67;10.55;;;;;;;30.05;34.58;100562.06;5062841;28;20119;-63
2023/10/02 14:11:19;;;;;;;19.45;10.15;;;;;;;30.12;33.98;100555.13;5063416;28;20028;-62
2023/10/02 14:13:48;;;;;;;19.88;10.35;;;;;;;29.72;34.44;100553.72;5064189;28;20115;-63
2023/10/02 14:16:15;;;;;;;16.52;9.82;;;;;;;29.76;34.70;100554.75;5063012;28;20391;-63
2023/10/02 14:18:43;;;;;;;17.75;9.82;;;;;;;29.51;35.68;100549.53;5063105;28;20032;-63
2023/10/02 14:21:09;;;;;;;19.20;10.52;;;;;;;29.44;35.83;100547.97;5064248;28;20091;-63
2023/10/02 14:23:36;;;;;;;18.38;10.57;;;;;;;29.41;35.67;100545.00;5061770;28;20037;-63
2023/10/02 14:26:14;;;;;;;18.35;9.90;;;;;;;29.12;35.95;100545.03;5073616;28;20032;-63
2023/10/02 14:28:39;;;;;;;18.83;10.35;;;;;;;29.09;35.20;100545.63;5073729;28;20063;-63
2023/10/02 14:31:06;;;;;;;20.45;11.02;;;;;;;29.06;35.44;100546.19;5073703;28;20056;-63
2023/10/02 14:33:33;;;;;;;19.48;10.88;;;;;;;28.88;35.95;100534.78;5073304;28;20036;-63
2023/10/02 14:36:06;;;;;;;19.38;9.60;;;;;;;28.80;36.79;100535.41;5073399;28;20040;-63
2023/10/02 14:38:32;;;;;;;21.52;10.13;;;;;;;28.67;37.91;100536.06;5073492;28;20499;-62
2023/10/02 14:40:57;;;;;;;21.08;10.20;;;;;;;28.55;37.92;100536.44;5073335;28;20044;-63
2023/10/02 14:43:22;;;;;;;20.25;10.52;;;;;;;28.53;37.57;100522.22;5073223;28;20040;-63
2023/10/02 14:45:49;;;;;;;18.85;10.77;;;;;;;28.33;38.50;100527.84;5070201;28;20178;-61
2023/10/02 14:48:19;;;;;;;19.57;10.63;;;;;;;28.22;38.54;100528.97;5063106;28;20556;-63
2023/10/02 14:50:44;;;;;;;17.85;9.93;;;;;;;28.22;38.34;100515.28;5063699;28;20777;-63
2023/10/02 14:53:11;;;;;;;20.55;10.70;;;;;;;28.17;37.88;100518.03;5061790;28;20032;-64
2023/10/02 14:55:38;;;;;;;18.42;9.95;;;;;;;28.08;38.80;100520.56;5062632;28;20116;-62
2023/10/02 14:58:07;;;;;;;21.17;10.82;;;;;;;28.18;38.08;100514.22;5063703;28;20403;-62
2023/10/02 15:00:34;;;;;;;20.48;11.40;;;;;;;28.10;38.04;100512.88;5062225;28;20040;-61
2023/10/02 15:03:01;;;;;;;22.15;10.57;;;;;;;27.96;38.04;100511.88;5061903;28;20036;-60
2023/10/02 15:05:27;;;;;;;;;;;;;;;27.96;37.79;100512.69;5063108;28;20032;-62
2023/10/02 15:07:53;;;;;;;20.53;10.83;;;;;;;27.79;37.87;100510.34;5062067;28;20295;-62
2023/10/02 15:10:21;;;;;;;20.02;9.63;;;;;;;27.84;37.33;100512.22;5062220;28;20044;-63
2023/10/02 15:12:48;;;;;;;20.38;9.98;;;;;;;27.79;37.00;100507.59;5063446;28;20086;-63
2023/10/02 15:15:13;;;;;;;22.83;10.65;;;;;;;27.72;37.38;100507.09;5062012;28;20029;-62
2023/10/02 15:17:46;;;;;;;18.45;9.60;;;;;;;27.69;37.58;100513.09;5061888;28;20024;-63
2023/10/02 15:20:17;;;;;;;20.88;11.02;;;;;;;27.70;38.12;100505.72;5061733;28;20153;-63
2023/10/02 15:22:50;;;;;;;21.70;11.07;;;;;;;27.66;38.08;100501.88;5061347;28;20087;-63
2023/10/02 15:25:17;;;;;;;19.25;10.30;;;;;;;27.53;38.89;100500.56;5062288;28;20377;-63
2023/10/02 15:27:45;;;;;;;22.10;10.88;;;;;;;27.49;38.89;100502.22;5061326;28;20028;-64
2023/10/02 15:30:14;;;;;;;19.92;9.88;;;;;;;27.41;38.72;100495.41;5061370;28;20065;-63
2023/10/02 15:32:39;;;;;;;20.25;10.50;;;;;;;27.36;39.05;100491.88;5056201;28;20025;-63
2023/10/02 15:35:05;;;;;;;20.38;10.52;;;;;;;27.26;39.10;100493.56;5062268;28;20518;-61
2023/10/02 15:37:34;;;;;;;21.77;11.00;;;;;;;27.24;39.11;100494.91;5060762;28;20032;-62
2023/10/02 15:40:07;;;;;;;21.15;11.10;;;;;;;27.18;39.66;100485.91;5062441;28;20158;-61
2023/10/02 15:42:37;;;;;;;21.70;10.73;;;;;;;27.08;40.28;100480.47;5062880;28;20123;-63
2023/10/02 15:45:15;;;;;;;18.02;10.07;;;;;;;27.07;40.17;100489.78;5061561;28;20029;-63
2023/10/02 15:47:48;;;;;;;20.35;9.32;;;;;;;27.04;39.85;100482.91;5061711;28;20107;-61
2023/10/02 15:50:18;;;;;;;21.08;10.02;;;;;;;26.91;40.53;100488.13;5060662;28;20063;-62
2023/10/02 15:52:45;;;;;;;20.15;9.70;;;;;;;26.89;41.57;100493.06;5054949;28;20127;-62
2023/10/02 15:55:13;;;;;;;20.30;10.73;;;;;;;26.82;41.74;100484.31;5051884;28;20075;-62
2023/10/02 15:57:42;;;;;;;19.48;10.35;;;;;;;26.73;42.84;100482.16;5052085;28;20033;-62
2023/10/02 16:00:22;;;;;;;20.33;9.65;;;;;;;26.56;45.04;100478.88;5052009;28;20048;-61
2023/10/02 16:02:52;;;;;;;19.23;9.35;;;;;;;26.32;47.30;100481.28;5051918;28;20084;-62
2023/10/02 16:05:18;;;;;;;19.23;9.40;;;;;;;26.30;47.70;100479.94;5052015;28;20033;-62
2023/10/02 16:07:48;;;;;;;17.92;10.00;;;;;;;26.09;49.31;100476.34;5052024;28;20067;-61
2023/10/02 16:10:15;;;;;;;19.30;9.90;;;;;;;25.86;51.05;100477.66;5051912;28;20037;-63
2023/10/02 16:12:42;;;;;;;19.90;10.70;;;;;;;25.64;52.83;100481.38;5051932;28;20511;-63
2023/10/02 16:15:13;;;;;;;19.50;10.13;;;;;;;25.53;52.72;100481.59;5051717;28;20123;-63
2023/10/02 16:17:39;;;;;;;17.95;9.82;;;;;;;25.38;54.04;100485.91;5051823;28;20119;-63
2023/10/02 16:20:05;;;;;;;20.05;9.45;;;;;;;25.35;55.13;100480.16;5057191;28;20090;-61
2023/10/02 16:22:34;;;;;;;19.40;9.87;;;;;;;25.15;57.73;100476.25;5051674;28;20061;-61
2023/10/02 16:25:05;;;;;;;18.23;8.90;;;;;;;25.06;57.83;100477.84;5051503;28;20488;-62
2023/10/02 16:27:31;;;;;;;17.17;9.57;;;;;;;24.92;58.47;100467.63;5051725;28;20515;-63
2023/10/02 16:29:57;;;;;;;19.88;10.02;;;;;;;24.62;60.70;100472.59;5051645;28;20503;-61
2023/10/02 16:32:22;;;;;;;19.52;10.35;;;;;;;24.53;61.64;100468.72;5051631;28;20108;-64